Time;durP1;ratioP1;P1;durP2;ratioP2;P2;SDS_P1;SDS_P2;PMS_P1;PMS_P2;Temp;Humidity;BMP_temperature;BMP_pressure;BME280_temperature;BME280_humidity;BME280_pressure;Samples;Min_cycle;Max_cycle;Signal;HPM_P1;HPM_P2
2021/12/12 00:00:36;;;;;;;6.13;2.27;;;6.80;99.90;;;;;;4915733;29;20265;-77
2021/12/12 00:03:14;;;;;;;8.30;2.27;;;6.70;99.90;;;;;;4915655;29;20209;-77
2021/12/12 00:05:44;;;;;;;10.60;2.40;;;6.80;99.90;;;;;;4914068;29;20665;-77
2021/12/12 00:08:14;;;;;;;8.87;2.07;;;6.70;99.90;;;;;;4912558;29;20719;-77
2021/12/12 00:10:44;;;;;;;9.17;1.70;;;6.70;99.90;;;;;;4896986;29;20216;-77
2021/12/12 00:13:17;;;;;;;6.97;1.70;;;6.80;99.90;;;;;;4897547;29;20207;-77
2021/12/12 00:15:45;;;;;;;7.63;1.60;;;6.70;99.90;;;;;;4913362;29;20214;-77
2021/12/12 00:18:12;;;;;;;9.30;2.23;;;6.80;99.90;;;;;;4914999;29;20229;-76
2021/12/12 00:20:39;;;;;;;8.97;2.43;;;6.70;99.90;;;;;;4912017;29;20208;-76
2021/12/12 00:23:07;;;;;;;11.70;2.00;;;6.60;99.90;;;;;;4914528;29;20205;-77
2021/12/12 00:25:38;;;;;;;5.10;1.80;;;6.60;99.90;;;;;;4913720;29;20225;-77
2021/12/12 00:28:06;;;;;;;4.00;1.90;;;6.60;99.90;;;;;;4914341;29;20237;-76
2021/12/12 00:30:33;;;;;;;6.00;1.70;;;6.60;99.90;;;;;;4913848;29;20728;-76
2021/12/12 00:33:02;;;;;;;14.40;2.27;;;6.50;99.90;;;;;;4916337;29;20599;-76
2021/12/12 00:35:30;;;;;;;7.10;1.90;;;6.50;99.90;;;;;;4914162;29;20214;-76
2021/12/12 00:38:00;;;;;;;3.37;1.60;;;6.50;99.90;;;;;;4914032;29;20247;-77
2021/12/12 00:40:32;;;;;;;5.63;2.00;;;6.50;99.90;;;;;;4906003;29;20202;-76
2021/12/12 00:43:05;;;;;;;4.87;1.53;;;6.50;99.90;;;;;;4896693;29;20206;-76
2021/12/12 00:45:34;;;;;;;12.70;2.63;;;6.50;99.90;;;;;;4897137;29;20221;-76
2021/12/12 00:48:02;;;;;;;8.10;2.07;;;6.50;99.90;;;;;;4896973;29;20231;-76
2021/12/12 00:50:32;;;;;;;4.93;1.93;;;6.30;99.90;;;;;;4901977;29;20206;-75
2021/12/12 00:53:01;;;;;;;6.70;2.03;;;6.30;99.90;;;;;;4914782;29;20666;-76
2021/12/12 00:55:29;;;;;;;9.10;1.87;;;6.30;99.90;;;;;;4916240;29;20208;-76
2021/12/12 00:57:56;;;;;;;5.77;1.87;;;6.30;99.90;;;;;;4918961;29;20244;-76
2021/12/12 01:00:27;;;;;;;7.30;1.70;;;6.40;99.90;;;;;;4918917;29;20209;-76
2021/12/12 01:02:55;;;;;;;6.10;1.77;;;6.40;99.90;;;;;;4919172;29;20258;-77
2021/12/12 01:05:25;;;;;;;5.30;2.00;;;6.40;99.90;;;;;;4918829;29;20210;-76
2021/12/12 01:07:52;;;;;;;6.17;1.60;;;6.30;99.90;;;;;;4905766;29;20232;-77
2021/12/12 01:10:24;;;;;;;3.60;1.53;;;6.30;99.90;;;;;;4900126;29;20211;-77
2021/12/12 01:12:53;;;;;;;8.03;2.07;;;6.30;99.90;;;;;;4900191;29;20214;-76
2021/12/12 01:15:26;;;;;;;13.77;2.10;;;6.40;99.90;;;;;;4899996;29;20210;-76
2021/12/12 01:17:57;;;;;;;3.90;1.67;;;6.30;99.90;;;;;;4899868;29;20242;-77
2021/12/12 01:20:31;;;;;;;6.60;1.60;;;6.30;99.90;;;;;;4899193;29;20305;-76
2021/12/12 01:23:03;;;;;;;9.43;2.27;;;6.30;99.90;;;;;;4899210;29;20219;-76
2021/12/12 01:25:34;;;;;;;6.57;1.90;;;6.30;99.90;;;;;;4899516;29;20210;-76
2021/12/12 01:28:02;;;;;;;11.03;2.10;;;6.30;99.90;;;;;;4899916;29;20240;-76
2021/12/12 01:30:29;;;;;;;9.53;1.53;;;6.30;99.90;;;;;;4899807;29;20223;-76
2021/12/12 01:32:57;;;;;;;5.03;1.80;;;6.30;99.90;;;;;;4899045;29;20297;-76
2021/12/12 01:35:26;;;;;;;4.00;1.73;;;6.30;99.90;;;;;;4899268;29;20224;-75
2021/12/12 01:40:51;;;;;;;7.00;1.57;;;6.30;99.90;;;;;;4889135;29;20215;-76
2021/12/12 01:43:24;;;;;;;6.53;1.50;;;6.20;99.90;;;;;;4899011;29;20214;-76
2021/12/12 01:45:58;;;;;;;7.83;1.50;;;6.20;99.90;;;;;;4898715;29;20214;-76
2021/12/12 01:48:28;;;;;;;5.43;1.50;;;6.30;99.90;;;;;;4899125;29;20207;-76
2021/12/12 01:51:00;;;;;;;7.60;1.60;;;6.30;99.90;;;;;;4899193;29;20206;-76
2021/12/12 01:53:31;;;;;;;5.30;1.63;;;6.30;99.90;;;;;;4898894;29;20215;-76
2021/12/12 01:56:02;;;;;;;5.23;1.93;;;6.30;99.90;;;;;;4898649;29;20210;-76
2021/12/12 01:58:31;;;;;;;5.73;1.90;;;6.20;99.90;;;;;;4899372;29;20253;-77
2021/12/12 02:01:01;;;;;;;5.00;1.37;;;6.20;99.90;;;;;;4898796;29;20210;-76
2021/12/12 02:03:31;;;;;;;6.53;1.47;;;6.20;99.90;;;;;;4897925;29;20217;-76
2021/12/12 02:06:01;;;;;;;7.47;1.30;;;6.20;99.90;;;;;;4897888;29;20214;-76
2021/12/12 02:08:31;;;;;;;4.43;1.60;;;6.20;99.90;;;;;;4897956;29;20225;-76
2021/12/12 02:11:01;;;;;;;4.03;1.37;;;6.20;99.90;;;;;;4899175;29;20582;-76
2021/12/12 02:13:31;;;;;;;5.60;1.80;;;6.20;99.90;;;;;;4898936;29;20207;-76
2021/12/12 02:16:00;;;;;;;5.83;1.57;;;6.20;99.90;;;;;;4897948;29;20693;-76
2021/12/12 02:18:34;;;;;;;6.20;1.20;;;6.20;99.90;;;;;;4898135;29;20234;-77
2021/12/12 02:21:10;;;;;;;10.47;1.60;;;6.20;99.90;;;;;;4898080;29;20217;-77
2021/12/12 02:23:54;;;;;;;11.67;1.60;;;6.20;99.90;;;;;;4897880;29;20229;-76
2021/12/12 02:37:22;;;;;;;3.83;1.40;;;6.40;99.90;;;;;;4898131;29;20244;-76
2021/12/12 02:39:51;;;;;;;6.17;1.73;;;6.30;99.90;;;;;;4898716;29;20206;-77
2021/12/12 02:42:21;;;;;;;8.17;1.70;;;6.30;99.90;;;;;;4898483;29;20217;-76
2021/12/12 02:44:53;;;;;;;3.80;1.20;;;6.40;99.90;;;;;;4898116;29;20210;-77
2021/12/12 02:47:25;;;;;;;4.20;1.30;;;6.40;99.90;;;;;;4898032;29;20240;-77
2021/12/12 02:50:07;;;;;;;3.10;1.87;;;6.40;99.90;;;;;;4898434;29;20214;-76
2021/12/12 02:52:34;;;;;;;6.10;1.40;;;6.40;99.90;;;;;;4898608;29;20218;-77
2021/12/12 02:55:09;;;;;;;7.37;1.67;;;6.40;99.90;;;;;;4898324;29;20662;-76
2021/12/12 02:57:37;;;;;;;3.53;1.10;;;6.40;99.90;;;;;;4897913;29;20238;-77
2021/12/12 03:00:06;;;;;;;5.90;1.50;;;6.40;99.90;;;;;;4898380;29;20210;-77
2021/12/12 03:02:40;;;;;;;3.77;1.30;;;6.40;99.90;;;;;;4898238;29;20206;-77
2021/12/12 03:05:08;;;;;;;5.50;1.30;;;6.50;99.90;;;;;;4898057;29;20212;-76
2021/12/12 03:07:35;;;;;;;5.87;1.37;;;6.50;99.90;;;;;;4897897;29;20245;-77
2021/12/12 03:10:07;;;;;;;6.13;1.20;;;6.60;99.90;;;;;;4898016;29;20210;-77
2021/12/12 03:12:35;;;;;;;6.10;1.30;;;6.50;99.90;;;;;;4897949;29;20581;-77
2021/12/12 03:15:08;;;;;;;5.07;1.17;;;6.50;99.90;;;;;;4897907;29;20224;-77
2021/12/12 03:17:38;;;;;;;3.80;1.20;;;6.50;99.90;;;;;;4897477;29;20685;-76
2021/12/12 03:20:23;;;;;;;4.30;1.50;;;6.60;99.90;;;;;;4897772;29;20222;-77
2021/12/12 03:22:54;;;;;;;6.57;1.33;;;6.60;99.90;;;;;;4897315;29;20586;-76
2021/12/12 03:25:23;;;;;;;7.17;1.47;;;6.60;99.90;;;;;;4897295;29;20210;-77
2021/12/12 03:27:51;;;;;;;3.33;1.30;;;6.60;99.90;;;;;;4897800;29;20260;-76
2021/12/12 03:30:21;;;;;;;5.40;1.63;;;6.70;99.90;;;;;;4897518;29;20688;-77
2021/12/12 03:32:48;;;;;;;2.77;1.20;;;6.70;99.90;;;;;;4897390;29;20206;-77
2021/12/12 03:35:15;;;;;;;6.47;1.60;;;6.70;99.90;;;;;;4897634;29;20210;-76
2021/12/12 03:37:43;;;;;;;3.23;1.20;;;6.60;99.90;;;;;;4896668;29;20693;-77
2021/12/12 03:40:15;;;;;;;2.73;1.30;;;6.70;99.90;;;;;;4897399;29;20221;-77
2021/12/12 03:42:46;;;;;;;7.57;1.33;;;6.70;99.90;;;;;;4897870;29;20211;-77
2021/12/12 03:45:14;;;;;;;3.83;1.10;;;6.70;99.90;;;;;;4897806;29;20579;-76
2021/12/12 03:47:45;;;;;;;4.97;1.30;;;6.70;99.90;;;;;;4897190;29;20232;-77
2021/12/12 03:50:16;;;;;;;2.03;1.10;;;6.80;99.90;;;;;;4897966;29;20217;-77
2021/12/12 03:52:44;;;;;;;3.57;1.10;;;6.80;99.90;;;;;;4897372;29;20210;-77
2021/12/12 03:55:12;;;;;;;3.20;1.10;;;6.80;99.90;;;;;;4897976;29;20210;-76
2021/12/12 03:57:39;;;;;;;4.30;1.20;;;6.80;99.90;;;;;;4897782;29;20237;-76
2021/12/12 04:00:13;;;;;;;1.53;0.90;;;6.90;99.90;;;;;;4897548;29;20214;-77
2021/12/12 04:02:40;;;;;;;3.93;1.07;;;6.90;99.90;;;;;;4897485;29;20210;-76
2021/12/12 04:05:08;;;;;;;5.60;1.13;;;7.00;99.90;;;;;;4897329;29;20251;-77
2021/12/12 04:07:35;;;;;;;3.30;1.13;;;6.80;99.90;;;;;;4897635;29;20237;-77
2021/12/12 04:10:03;;;;;;;3.27;1.10;;;6.90;99.90;;;;;;4897421;29;20216;-76
2021/12/12 04:12:30;;;;;;;2.23;1.10;;;6.90;99.90;;;;;;4900913;29;20210;-76
2021/12/12 04:14:57;;;;;;;2.00;1.20;;;6.90;99.90;;;;;;4916047;29;20685;-77
2021/12/12 04:17:29;;;;;;;4.73;1.17;;;6.90;99.90;;;;;;4915687;29;20298;-77
2021/12/12 04:20:00;;;;;;;1.20;0.83;;;6.90;99.90;;;;;;4916032;29;20225;-76
2021/12/12 04:22:27;;;;;;;1.23;0.77;;;6.90;99.90;;;;;;4916163;29;20206;-77
2021/12/12 04:24:56;;;;;;;1.70;0.90;;;6.90;99.90;;;;;;4916330;29;20216;-76
2021/12/12 04:27:24;;;;;;;1.00;0.77;;;7.00;99.90;;;;;;4916261;29;20236;-76
2021/12/12 04:29:53;;;;;;;4.43;1.10;;;7.00;99.90;;;;;;4916906;29;20225;-76
2021/12/12 04:32:23;;;;;;;1.57;1.10;;;7.00;99.90;;;;;;4919430;29;20206;-76
2021/12/12 04:34:54;;;;;;;1.50;1.13;;;7.00;99.90;;;;;;4919539;29;20854;-76
2021/12/12 04:37:24;;;;;;;2.37;0.97;;;7.00;99.90;;;;;;4919865;29;20234;-76
2021/12/12 04:39:56;;;;;;;3.17;1.30;;;7.00;99.90;;;;;;4919426;29;20237;-76
2021/12/12 04:42:26;;;;;;;2.43;1.10;;;7.00;99.90;;;;;;4919830;29;20210;-76
2021/12/12 04:45:09;;;;;;;3.40;1.20;;;7.00;99.90;;;;;;4919276;29;20209;-77
2021/12/12 04:50:32;;;;;;;1.47;0.90;;;6.90;99.90;;;;;;4919258;29;20233;-77
2021/12/12 04:53:05;;;;;;;1.83;1.20;;;7.00;99.90;;;;;;4919243;29;20235;-76
2021/12/12 04:55:36;;;;;;;1.33;1.00;;;7.00;99.90;;;;;;4919555;29;20214;-76
2021/12/12 04:58:07;;;;;;;4.00;0.90;;;7.10;99.90;;;;;;4919064;29;20237;-76
2021/12/12 05:00:39;;;;;;;1.57;1.23;;;7.10;99.90;;;;;;4919034;29;20209;-76
2021/12/12 05:03:15;;;;;;;1.87;1.03;;;7.20;99.90;;;;;;4918699;29;20348;-77
2021/12/12 05:05:50;;;;;;;1.97;0.90;;;7.10;99.90;;;;;;4900225;29;20221;-77
2021/12/12 05:08:26;;;;;;;2.50;1.30;;;7.10;99.90;;;;;;4899924;29;20243;-76
2021/12/12 05:10:59;;;;;;;1.60;1.20;;;7.20;99.90;;;;;;4899876;29;20206;-76
2021/12/12 05:13:31;;;;;;;3.03;1.00;;;7.10;99.90;;;;;;4900001;29;20212;-75
2021/12/12 05:16:02;;;;;;;1.33;0.90;;;7.20;99.90;;;;;;4901323;29;20211;-76
2021/12/12 05:18:32;;;;;;;3.80;1.20;;;7.20;99.90;;;;;;4918221;29;20712;-76
2021/12/12 05:21:05;;;;;;;2.40;1.30;;;7.20;99.90;;;;;;4899467;29;20674;-74
2021/12/12 05:23:33;;;;;;;1.93;1.33;;;7.10;99.90;;;;;;4899932;29;20233;-75
2021/12/12 05:26:04;;;;;;;3.83;1.40;;;7.20;99.90;;;;;;4899768;29;20654;-75
2021/12/12 05:28:34;;;;;;;5.67;1.50;;;7.10;99.90;;;;;;4900231;29;20237;-77
2021/12/12 05:31:02;;;;;;;1.63;1.23;;;7.10;99.90;;;;;;4899957;29;20229;-76
2021/12/12 05:33:30;;;;;;;1.37;1.10;;;7.10;99.90;;;;;;4900046;29;20224;-76
2021/12/12 05:35:57;;;;;;;2.13;1.20;;;7.20;99.90;;;;;;4899374;29;20214;-76
2021/12/12 05:38:26;;;;;;;1.77;1.07;;;7.20;99.90;;;;;;4899743;29;20234;-75
2021/12/12 05:40:53;;;;;;;1.60;1.03;;;7.20;99.90;;;;;;4899192;29;20210;-76
2021/12/12 05:43:21;;;;;;;1.60;1.17;;;7.10;99.90;;;;;;4900044;29;20210;-75
2021/12/12 05:45:49;;;;;;;1.87;0.90;;;7.20;99.90;;;;;;4899914;29;20207;-75
2021/12/12 05:48:15;;;;;;;2.70;1.23;;;7.20;99.90;;;;;;4899676;29;20222;-75
2021/12/12 05:50:43;;;;;;;1.57;1.03;;;7.20;99.90;;;;;;4898718;29;20214;-76
2021/12/12 05:53:10;;;;;;;2.50;1.40;;;7.30;99.90;;;;;;4899485;29;20623;-76
2021/12/12 05:55:40;;;;;;;1.50;1.20;;;7.30;99.90;;;;;;4899838;29;20214;-76
2021/12/12 05:58:10;;;;;;;2.57;1.30;;;7.40;99.90;;;;;;4899878;29;20231;-76
2021/12/12 06:00:40;;;;;;;2.27;1.20;;;7.30;99.90;;;;;;4899167;29;20206;-76
2021/12/12 06:03:09;;;;;;;2.70;1.33;;;7.30;99.90;;;;;;4899508;29;20227;-75
2021/12/12 06:05:37;;;;;;;1.77;0.97;;;7.40;99.90;;;;;;4899395;29;20689;-76
2021/12/12 06:08:06;;;;;;;1.20;1.00;;;7.40;99.90;;;;;;4899495;29;20257;-77
2021/12/12 06:10:35;;;;;;;2.10;1.20;;;7.40;99.90;;;;;;4898932;29;20210;-76
2021/12/12 06:13:05;;;;;;;4.60;1.20;;;7.40;99.90;;;;;;4899098;29;20210;-76
2021/12/12 06:15:32;;;;;;;2.07;1.10;;;7.40;99.90;;;;;;4899101;29;20222;-76
2021/12/12 06:18:00;;;;;;;1.53;1.10;;;7.40;99.90;;;;;;4899266;29;20325;-76
2021/12/12 06:20:28;;;;;;;1.83;1.30;;;7.50;99.90;;;;;;4898602;29;20238;-76
2021/12/12 06:22:55;;;;;;;2.07;1.27;;;7.40;99.90;;;;;;4898870;29;20217;-76
2021/12/12 06:25:23;;;;;;;3.93;1.57;;;7.40;99.90;;;;;;4899217;29;20217;-74
2021/12/12 06:27:50;;;;;;;2.27;1.27;;;7.50;99.90;;;;;;4898955;29;20226;-76
2021/12/12 06:30:22;;;;;;;2.03;1.43;;;7.50;99.90;;;;;;4899053;29;20678;-76
2021/12/12 06:32:50;;;;;;;2.40;1.50;;;7.50;99.90;;;;;;4898967;29;20669;-76
2021/12/12 06:35:19;;;;;;;2.43;1.60;;;7.50;99.90;;;;;;4898564;29;20214;-76
2021/12/12 06:37:46;;;;;;;3.10;1.40;;;7.50;99.90;;;;;;4898561;29;20230;-76
2021/12/12 06:40:19;;;;;;;2.73;1.80;;;7.50;99.90;;;;;;4898531;29;20241;-76
2021/12/12 06:42:47;;;;;;;2.13;1.40;;;7.50;99.90;;;;;;4898717;29;20266;-76
2021/12/12 06:45:14;;;;;;;3.60;1.40;;;7.60;99.90;;;;;;4898401;29;20234;-77
2021/12/12 06:47:43;;;;;;;3.33;1.77;;;7.60;99.90;;;;;;4898462;29;20237;-75
2021/12/12 06:50:11;;;;;;;3.30;2.03;;;7.50;99.90;;;;;;4898589;29;20217;-76
2021/12/12 06:52:39;;;;;;;2.73;1.77;;;7.50;99.90;;;;;;4897803;29;20217;-75
2021/12/12 06:55:10;;;;;;;3.20;2.07;;;7.60;99.90;;;;;;4898163;29;20211;-76
2021/12/12 06:57:38;;;;;;;2.87;1.97;;;7.60;99.90;;;;;;4898333;29;20234;-76
2021/12/12 07:00:08;;;;;;;4.73;2.40;;;7.60;99.90;;;;;;4897806;29;20249;-76
2021/12/12 07:02:34;;;;;;;6.70;2.77;;;7.60;99.90;;;;;;4898337;29;20217;-76
2021/12/12 07:05:04;;;;;;;3.33;1.80;;;7.70;99.90;;;;;;4898349;29;20693;-76
2021/12/12 07:07:31;;;;;;;2.80;1.97;;;7.70;99.90;;;;;;4897689;29;20234;-77
2021/12/12 07:09:58;;;;;;;5.07;1.97;;;7.70;99.90;;;;;;4898008;29;20686;-76
2021/12/12 07:12:25;;;;;;;5.47;2.17;;;7.70;99.90;;;;;;4898362;29;20210;-76
2021/12/12 07:14:54;;;;;;;9.70;2.57;;;7.70;99.90;;;;;;4898527;29;20213;-75
2021/12/12 07:17:22;;;;;;;4.33;2.13;;;7.70;99.90;;;;;;4898349;29;20240;-76
2021/12/12 07:19:49;;;;;;;3.23;2.00;;;7.70;99.90;;;;;;4898061;29;20249;-76
2021/12/12 07:22:18;;;;;;;5.43;2.40;;;7.70;99.90;;;;;;4897114;29;21221;-77
2021/12/12 07:24:45;;;;;;;5.07;2.23;;;7.70;99.90;;;;;;4897316;29;20693;-76
2021/12/12 07:27:16;;;;;;;7.10;2.27;;;7.70;99.90;;;;;;4897030;29;20828;-77
2021/12/12 07:29:43;;;;;;;4.10;2.60;;;7.70;99.90;;;;;;4897656;29;20230;-76
2021/12/12 07:32:10;;;;;;;8.97;2.23;;;7.70;99.90;;;;;;4898045;29;20222;-76
2021/12/12 07:34:37;;;;;;;4.77;2.40;;;7.70;99.90;;;;;;4898240;29;20221;-77
2021/12/12 07:37:07;;;;;;;7.13;3.20;;;7.70;99.90;;;;;;4897148;29;20226;-76
2021/12/12 07:39:38;;;;;;;8.23;3.27;;;7.80;99.90;;;;;;4897641;29;20242;-76
2021/12/12 07:42:07;;;;;;;6.60;2.40;;;7.80;99.90;;;;;;4897702;29;20240;-77
2021/12/12 07:44:36;;;;;;;7.70;2.80;;;7.80;99.90;;;;;;4897622;29;20218;-76
2021/12/12 07:47:05;;;;;;;6.53;2.60;;;7.80;99.90;;;;;;4897492;29;20260;-75
2021/12/12 07:49:33;;;;;;;6.30;2.20;;;7.80;99.90;;;;;;4903905;29;20209;-76
2021/12/12 07:52:01;;;;;;;4.60;2.47;;;7.90;99.90;;;;;;4913565;29;20209;-77
2021/12/12 07:54:30;;;;;;;7.10;2.80;;;7.90;99.90;;;;;;4915571;29;20220;-77
2021/12/12 07:56:58;;;;;;;6.03;3.13;;;7.90;99.90;;;;;;4915589;29;20237;-76
2021/12/12 07:59:26;;;;;;;7.03;2.73;;;7.90;99.90;;;;;;4915497;29;20241;-77
2021/12/12 08:01:54;;;;;;;7.20;2.40;;;7.90;99.90;;;;;;4915879;29;20231;-77
2021/12/12 08:04:26;;;;;;;9.07;2.70;;;7.90;99.90;;;;;;4918155;29;20680;-76
2021/12/12 08:06:53;;;;;;;5.40;2.40;;;7.90;99.90;;;;;;4919289;29;20234;-76
2021/12/12 08:09:22;;;;;;;7.50;3.23;;;7.90;99.90;;;;;;4920269;29;20665;-76
2021/12/12 08:11:49;;;;;;;6.30;2.37;;;7.90;99.90;;;;;;4917152;29;20213;-77
2021/12/12 08:14:21;;;;;;;7.43;2.70;;;7.80;99.90;;;;;;4900868;29;20217;-76
2021/12/12 08:16:50;;;;;;;5.70;2.57;;;7.90;99.90;;;;;;4900770;29;20233;-76
2021/12/12 08:19:18;;;;;;;8.47;2.90;;;7.90;99.90;;;;;;4900558;29;20238;-77
2021/12/12 08:21:45;;;;;;;6.70;2.80;;;7.90;99.90;;;;;;4900383;29;20662;-76
2021/12/12 08:24:13;;;;;;;5.77;2.20;;;7.90;99.90;;;;;;4901205;29;20217;-77
2021/12/12 08:26:44;;;;;;;6.93;2.70;;;7.90;99.90;;;;;;4906486;29;20228;-76
2021/12/12 08:29:13;;;;;;;8.37;2.67;;;7.90;99.90;;;;;;4916025;29;20225;-77
2021/12/12 08:31:42;;;;;;;8.63;3.37;;;8.00;99.90;;;;;;4919666;29;20554;-76
2021/12/12 08:34:11;;;;;;;5.80;3.23;;;8.00;99.90;;;;;;4918825;29;20208;-77
2021/12/12 08:36:41;;;;;;;8.07;3.10;;;8.00;99.90;;;;;;4919002;29;20570;-77
2021/12/12 08:39:09;;;;;;;5.33;2.60;;;8.00;99.90;;;;;;4919518;29;20675;-77
2021/12/12 08:41:36;;;;;;;7.60;2.37;;;8.00;99.90;;;;;;4919844;29;20206;-77
2021/12/12 08:44:04;;;;;;;5.37;3.00;;;8.00;99.90;;;;;;4919539;29;20214;-77
2021/12/12 08:46:31;;;;;;;5.20;2.50;;;8.00;99.90;;;;;;4918998;29;20229;-77
2021/12/12 08:49:01;;;;;;;6.07;2.73;;;8.00;99.90;;;;;;4919260;29;20220;-77
2021/12/12 08:51:35;;;;;;;5.87;2.73;;;8.00;99.90;;;;;;4916674;29;20216;-76
2021/12/12 08:54:13;;;;;;;8.30;3.03;;;8.00;99.90;;;;;;4918470;29;20211;-77
2021/12/12 08:56:44;;;;;;;8.03;2.60;;;8.20;99.90;;;;;;4916844;29;20274;-77
2021/12/12 08:59:13;;;;;;;6.20;2.80;;;8.20;99.90;;;;;;4915695;29;20236;-77
2021/12/12 09:01:42;;;;;;;6.83;3.17;;;8.20;99.90;;;;;;4916673;29;20205;-77
2021/12/12 09:04:11;;;;;;;8.03;2.70;;;8.30;99.90;;;;;;4918909;29;20241;-76
2021/12/12 09:06:44;;;;;;;7.57;2.80;;;8.20;99.90;;;;;;4918540;29;20230;-77
2021/12/12 09:09:16;;;;;;;4.27;2.80;;;8.30;99.90;;;;;;4917750;29;20198;-77
2021/12/12 09:11:47;;;;;;;4.90;2.63;;;8.40;99.90;;;;;;4918448;29;20782;-77
2021/12/12 09:14:19;;;;;;;8.17;2.87;;;8.40;99.90;;;;;;4918736;29;20293;-76
2021/12/12 09:16:49;;;;;;;4.73;2.60;;;8.40;99.90;;;;;;4910410;29;20230;-77
2021/12/12 09:19:25;;;;;;;5.03;2.67;;;8.40;99.90;;;;;;4899606;29;20225;-77
2021/12/12 09:21:57;;;;;;;6.20;2.50;;;8.40;99.90;;;;;;4899426;29;20289;-77
2021/12/12 09:24:43;;;;;;;2.87;1.87;;;8.50;99.90;;;;;;4899006;29;20215;-77
2021/12/12 09:27:13;;;;;;;4.50;2.57;;;8.50;99.90;;;;;;4897640;29;20234;-76
2021/12/12 09:29:46;;;;;;;5.77;2.43;;;8.60;99.90;;;;;;4898419;29;20222;-75
2021/12/12 09:32:18;;;;;;;9.57;4.23;;;8.60;99.90;;;;;;4899170;29;20300;-76
2021/12/12 09:34:56;;;;;;;5.20;2.27;;;8.60;99.90;;;;;;4898998;29;20214;-74
2021/12/12 09:37:28;;;;;;;4.70;2.60;;;8.70;99.90;;;;;;4898623;29;20233;-77
2021/12/12 09:40:00;;;;;;;4.40;2.50;;;8.70;99.90;;;;;;4899203;29;20234;-76
2021/12/12 09:42:47;;;;;;;5.73;2.33;;;8.70;99.90;;;;;;4899170;29;20297;-77
2021/12/12 09:45:59;;;;;;;4.53;2.10;;;8.60;99.90;;;;;;4899785;29;20304;-77
2021/12/12 09:52:01;;;;;;;4.83;2.83;;;8.70;99.90;;;;;;4898789;29;20209;-77
2021/12/12 09:54:36;;;;;;;2.77;1.90;;;8.80;99.90;;;;;;4899074;29;20274;-77
2021/12/12 09:57:11;;;;;;;4.50;2.73;;;8.80;99.90;;;;;;4899571;29;20241;-77
2021/12/12 09:59:54;;;;;;;4.50;2.53;;;8.90;99.90;;;;;;4899917;29;20574;-77
2021/12/12 10:02:27;;;;;;;4.70;2.30;;;8.90;99.90;;;;;;4899228;29;20198;-76
2021/12/12 10:05:08;;;;;;;4.17;2.27;;;9.00;99.90;;;;;;4899139;29;20215;-76
2021/12/12 10:07:50;;;;;;;5.20;2.30;;;8.90;99.90;;;;;;4898919;29;20231;-77
2021/12/12 10:10:23;;;;;;;5.07;2.53;;;8.90;99.90;;;;;;4899172;29;20214;-76
2021/12/12 10:12:56;;;;;;;3.57;2.20;;;8.90;99.90;;;;;;4899039;29;20210;-74
2021/12/12 10:15:25;;;;;;;3.83;2.27;;;8.90;99.90;;;;;;4898817;29;20206;-76
2021/12/12 10:17:58;;;;;;;4.47;2.53;;;8.90;99.90;;;;;;4898535;29;20223;-75
2021/12/12 10:20:30;;;;;;;6.03;2.60;;;8.90;99.90;;;;;;4898899;29;20242;-74
2021/12/12 10:23:09;;;;;;;5.73;2.90;;;8.90;99.90;;;;;;4899101;29;20294;-74
2021/12/12 10:25:42;;;;;;;4.67;2.60;;;8.90;99.90;;;;;;4898996;29;20657;-77
2021/12/12 10:28:18;;;;;;;8.63;2.93;;;8.90;99.90;;;;;;4898930;29;20227;-74
2021/12/12 10:30:50;;;;;;;5.10;2.50;;;8.90;99.90;;;;;;4899471;29;20214;-74
2021/12/12 10:33:22;;;;;;;5.20;2.37;;;8.90;99.90;;;;;;4898842;29;20226;-74
2021/12/12 10:35:53;;;;;;;4.53;2.40;;;8.90;99.90;;;;;;4898469;29;20210;-76
2021/12/12 10:38:27;;;;;;;7.47;3.10;;;9.00;99.90;;;;;;4898331;29;20324;-75
2021/12/12 10:40:59;;;;;;;4.13;2.73;;;9.00;99.90;;;;;;4897936;29;20242;-75
2021/12/12 10:43:31;;;;;;;4.37;2.60;;;9.00;99.90;;;;;;4910050;29;20208;-75
2021/12/12 10:46:02;;;;;;;4.73;2.50;;;9.00;99.90;;;;;;4913581;29;20208;-76
2021/12/12 10:48:39;;;;;;;8.43;2.90;;;9.00;99.90;;;;;;4916196;29;20216;-74
2021/12/12 10:51:09;;;;;;;7.37;2.80;;;9.00;99.90;;;;;;4915630;29;20209;-76
2021/12/12 10:53:45;;;;;;;6.03;3.43;;;9.10;99.90;;;;;;4915997;29;20206;-76
2021/12/12 10:56:20;;;;;;;7.53;3.10;;;9.00;99.90;;;;;;4913554;29;20205;-76
2021/12/12 10:58:52;;;;;;;4.60;2.97;;;9.00;99.90;;;;;;4915381;29;20206;-76
2021/12/12 11:01:24;;;;;;;5.60;3.17;;;9.10;99.90;;;;;;4914561;29;20318;-76
2021/12/12 11:03:55;;;;;;;6.10;2.70;;;9.10;99.90;;;;;;4913289;29;20213;-76
2021/12/12 11:06:27;;;;;;;4.93;2.80;;;9.10;99.90;;;;;;4915063;29;20701;-76
2021/12/12 11:09:00;;;;;;;5.53;2.63;;;9.10;99.90;;;;;;4913224;29;20216;-76
2021/12/12 11:11:32;;;;;;;4.87;2.90;;;9.10;99.90;;;;;;4915142;29;20231;-75
2021/12/12 11:14:07;;;;;;;4.57;2.80;;;9.10;99.90;;;;;;4916124;29;20539;-74
2021/12/12 11:16:39;;;;;;;6.03;2.60;;;9.10;99.90;;;;;;4912610;29;20225;-77
2021/12/12 11:19:13;;;;;;;6.43;2.80;;;9.10;99.90;;;;;;4915550;29;20212;-77
2021/12/12 11:21:44;;;;;;;5.23;2.87;;;9.20;99.90;;;;;;4914984;29;20234;-78
2021/12/12 11:24:19;;;;;;;5.93;2.40;;;9.20;99.90;;;;;;4912953;29;20202;-77
2021/12/12 11:26:53;;;;;;;4.23;2.30;;;9.30;99.90;;;;;;4914460;29;20231;-78
2021/12/12 11:29:24;;;;;;;3.50;2.13;;;9.30;99.90;;;;;;4909063;29;20656;-77
2021/12/12 11:31:55;;;;;;;5.60;2.50;;;9.30;99.90;;;;;;4910836;29;20330;-77
2021/12/12 11:34:23;;;;;;;5.40;2.57;;;9.30;99.90;;;;;;4915608;29;20293;-77
2021/12/12 11:37:02;;;;;;;5.27;2.53;;;9.30;99.90;;;;;;4916441;29;20236;-78
2021/12/12 11:39:35;;;;;;;5.30;2.60;;;9.40;99.90;;;;;;4916000;29;20221;-78
2021/12/12 11:42:06;;;;;;;5.23;2.53;;;9.50;99.90;;;;;;4915965;29;20241;-78
2021/12/12 11:44:39;;;;;;;5.03;2.47;;;9.50;99.90;;;;;;4915964;29;20646;-77
2021/12/12 11:47:11;;;;;;;5.10;2.63;;;9.60;99.90;;;;;;4915992;29;20230;-77
2021/12/12 11:49:50;;;;;;;4.50;2.40;;;9.70;99.90;;;;;;4916214;29;20213;-77
2021/12/12 11:52:34;;;;;;;3.23;2.00;;;9.80;99.90;;;;;;4916413;29;20311;-79
2021/12/12 11:55:08;;;;;;;6.27;2.40;;;9.80;99.90;;;;;;4916392;29;20217;-78
2021/12/12 11:57:42;;;;;;;4.30;2.30;;;9.80;99.90;;;;;;4906661;29;20233;-75
2021/12/12 12:00:15;;;;;;;3.53;2.20;;;9.80;99.90;;;;;;4902853;29;20216;-79
2021/12/12 12:02:52;;;;;;;3.27;2.17;;;9.80;99.90;;;;;;4908985;29;20209;-79
2021/12/12 12:05:32;;;;;;;4.87;2.03;;;9.70;99.90;;;;;;4915701;29;20684;-75
2021/12/12 12:08:06;;;;;;;4.13;2.23;;;9.70;99.90;;;;;;4915698;29;20251;-77
2021/12/12 12:10:46;;;;;;;4.00;2.00;;;9.80;99.90;;;;;;4914940;29;20217;-78
2021/12/12 12:13:25;;;;;;;3.17;2.03;;;9.80;99.90;;;;;;4916201;29;20210;-77
2021/12/12 12:15:58;;;;;;;3.20;1.83;;;9.80;99.90;;;;;;4903583;29;20224;-77
2021/12/12 12:18:35;;;;;;;2.80;1.97;;;9.80;99.90;;;;;;4903105;29;20304;-76
2021/12/12 12:21:10;;;;;;;3.50;1.73;;;9.80;99.90;;;;;;4907402;29;20237;-78
2021/12/12 12:24:10;;;;;;;2.97;1.77;;;9.90;99.90;;;;;;4910280;29;20669;-79
2021/12/12 12:26:51;;;;;;;5.33;2.27;;;10.00;99.90;;;;;;4913671;29;20226;-80
2021/12/12 12:30:05;;;;;;;2.70;1.80;;;9.90;99.90;;;;;;4912251;29;20272;-77
2021/12/12 12:33:40;;;;;;;3.13;1.67;;;10.10;99.90;;;;;;4913423;29;20212;-79
2021/12/12 12:36:50;;;;;;;2.63;1.83;;;10.00;99.90;;;;;;4913505;29;20720;-78
2021/12/12 12:39:54;;;;;;;3.00;2.10;;;10.10;99.90;;;;;;4912536;29;20629;-78
2021/12/12 12:42:58;;;;;;;3.00;2.13;;;10.10;99.90;;;;;;4913221;29;20229;-78
2021/12/12 12:46:02;;;;;;;3.37;2.03;;;10.00;99.90;;;;;;4913778;29;20209;-78
2021/12/12 12:49:17;;;;;;;3.27;1.97;;;10.00;99.90;;;;;;4912029;29;20209;-77
2021/12/12 12:52:15;;;;;;;4.13;2.13;;;10.00;99.90;;;;;;4915290;29;20202;-77
2021/12/12 12:54:46;;;;;;;3.37;1.90;;;10.10;99.90;;;;;;4918961;29;20216;-78
2021/12/12 12:57:31;;;;;;;4.47;2.23;;;10.20;99.90;;;;;;4918576;29;20696;-78
2021/12/12 13:00:07;;;;;;;2.20;1.63;;;10.30;99.90;;;;;;4912432;29;20228;-77
2021/12/12 13:03:12;;;;;;;4.13;1.90;;;10.30;99.90;;;;;;4909617;29;20280;-77
2021/12/12 13:06:28;;;;;;;7.97;3.77;;;10.30;99.90;;;;;;4895231;29;20269;-79
2021/12/12 13:09:28;;;;;;;4.50;2.23;;;10.40;99.90;;;;;;4899424;29;20218;-78
2021/12/12 13:12:26;;;;;;;2.70;1.70;;;10.40;99.90;;;;;;4900442;29;20214;-78
2021/12/12 13:14:59;;;;;;;2.77;1.67;;;10.40;99.90;;;;;;4914091;29;20271;-77
2021/12/12 13:17:41;;;;;;;3.80;2.40;;;10.40;99.90;;;;;;4914648;29;20225;-78
2021/12/12 13:20:28;;;;;;;3.43;1.80;;;10.40;99.90;;;;;;4916746;29;20662;-75
2021/12/12 13:23:23;;;;;;;3.20;1.83;;;10.40;99.90;;;;;;4917825;29;20223;-78
2021/12/12 13:25:57;;;;;;;3.30;1.93;;;10.40;99.90;;;;;;4897280;29;20210;-77
2021/12/12 13:28:32;;;;;;;2.63;1.80;;;10.60;99.90;;;;;;4918687;29;20229;-76
2021/12/12 13:31:03;;;;;;;3.50;1.70;;;10.50;99.90;;;;;;4917486;29;20201;-78
2021/12/12 13:33:43;;;;;;;3.13;1.93;;;10.60;99.90;;;;;;4918458;29;20214;-77
2021/12/12 13:36:40;;;;;;;3.83;2.10;;;10.60;99.90;;;;;;4918368;29;20214;-76
2021/12/12 13:39:10;;;;;;;3.90;2.03;;;10.60;99.90;;;;;;4918096;29;20213;-77
2021/12/12 13:41:59;;;;;;;2.10;1.80;;;10.60;99.90;;;;;;4909311;29;20596;-78
2021/12/12 13:44:45;;;;;;;3.10;1.50;;;10.60;99.90;;;;;;4905199;29;20680;-78